Time;durP1;ratioP1;P1;durP2;ratioP2;P2;SDS_P1;SDS_P2;PMS_P1;PMS_P2;Temp;Humidity;BMP_temperature;BMP_pressure;BME280_temperature;BME280_humidity;BME280_pressure;Samples;Min_cycle;Max_cycle;Signal;HPM_P1;HPM_P2
2023/09/03 05:37:24;;;;;;;1.55;1.55;;;;;;;;;;4958098;29;20780;-75
2023/09/03 05:39:51;;;;;;;4.97;4.57;;;;;;;;;;4958410;29;20208;-75
2023/09/03 05:42:18;;;;;;;4.88;4.57;;;;;;;;;;4958289;29;20294;-75
2023/09/03 05:44:45;;;;;;;3.72;3.53;;;;;;;;;;4958087;28;20598;-75
2023/09/03 05:47:14;;;;;;;3.38;3.17;;;;;;;;;;4958031;29;20644;-75
2023/09/03 05:49:41;;;;;;;3.30;3.10;;;;;;;;;;4958203;29;20244;-75
2023/09/03 05:52:08;;;;;;;2.75;2.65;;;;;;;;;;4958499;29;20215;-75
2023/09/03 05:54:38;;;;;;;2.15;2.10;;;;;;;;;;4957344;28;20227;-75
2023/09/03 05:57:05;;;;;;;2.22;2.20;;;;;;;;;;4957795;29;20207;-75
2023/09/03 05:59:32;;;;;;;2.42;2.33;;;;;;;;;;4958357;29;20204;-76
2023/09/03 06:01:59;;;;;;;2.30;2.20;;;;;;;;;;4957858;29;20208;-76
2023/09/03 06:04:26;;;;;;;2.10;2.00;;;;;;;;;;4958350;29;20234;-78
2023/09/03 06:06:53;;;;;;;2.78;2.35;;;;;;;;;;4958053;29;20208;-76
2023/09/03 06:09:20;;;;;;;2.45;2.10;;;;;;;;;;4957441;29;20539;-76
2023/09/03 06:11:49;;;;;;;2.15;2.05;;;;;;;;;;4957585;29;20214;-76
2023/09/03 06:14:16;;;;;;;2.33;2.22;;;;;;;;;;4957779;29;20231;-76
2023/09/03 06:16:43;;;;;;;1.98;1.88;;;;;;;;;;4957707;29;20212;-75
2023/09/03 06:19:10;;;;;;;1.52;1.50;;;;;;;;;;4957536;29;20606;-75
2023/09/03 06:21:37;;;;;;;1.80;1.73;;;;;;;;;;4957294;29;20200;-75
2023/09/03 06:24:04;;;;;;;1.33;1.33;;;;;;;;;;4957277;29;20737;-74
2023/09/03 06:26:31;;;;;;;1.63;1.63;;;;;;;;;;4957400;29;20218;-74
2023/09/03 06:29:00;;;;;;;1.83;1.80;;;;;;;;;;4957349;29;20219;-74
2023/09/03 06:31:27;;;;;;;1.92;1.83;;;;;;;;;;4957435;28;20258;-75
2023/09/03 06:33:54;;;;;;;1.83;1.73;;;;;;;;;;4957338;29;20207;-74
2023/09/03 06:36:21;;;;;;;1.75;1.65;;;;;;;;;;4956823;29;20619;-74
2023/09/03 06:38:48;;;;;;;1.63;1.63;;;;;;;;;;4957019;28;20207;-75
2023/09/03 06:41:15;;;;;;;1.80;1.70;;;;;;;;;;4956953;29;20203;-72
2023/09/03 06:43:42;;;;;;;1.42;1.42;;;;;;;;;;4957081;29;20211;-74
2023/09/03 06:46:11;;;;;;;1.17;1.17;;;;;;;;;;4956976;29;20211;-73
2023/09/03 06:48:38;;;;;;;1.10;1.10;;;;;;;;;;4956990;29;20199;-75
2023/09/03 06:51:05;;;;;;;1.20;1.20;;;;;;;;;;4957063;29;20214;-74
2023/09/03 06:53:32;;;;;;;1.50;1.50;;;;;;;;;;4956905;29;20207;-74
2023/09/03 06:55:59;;;;;;;1.10;1.10;;;;;;;;;;4956777;29;20230;-74
2023/09/03 06:58:26;;;;;;;1.02;1.02;;;;;;;;;;4956749;29;20226;-74
2023/09/03 07:00:53;;;;;;;0.90;0.90;;;;;;;;;;4956891;29;20207;-74
2023/09/03 07:03:22;;;;;;;1.17;1.17;;;;;;;;;;4956747;29;20218;-73
2023/09/03 07:05:49;;;;;;;1.08;1.08;;;;;;;;;;4955714;28;20223;-75
2023/09/03 07:08:16;;;;;;;1.60;1.13;;;;;;;;;;4956658;29;20210;-76
2023/09/03 07:10:43;;;;;;;1.00;1.00;;;;;;;;;;4956678;29;20220;-76
2023/09/03 07:13:10;;;;;;;0.95;0.95;;;;;;;;;;4956924;29;20211;-77
2023/09/03 07:15:38;;;;;;;1.13;1.13;;;;;;;;;;4956818;28;20314;-76
2023/09/03 07:18:05;;;;;;;1.30;1.20;;;;;;;;;;4956479;29;20236;-76
2023/09/03 07:20:33;;;;;;;1.02;0.95;;;;;;;;;;4956499;29;20211;-76
2023/09/03 07:23:00;;;;;;;0.85;0.85;;;;;;;;;;4956171;29;20670;-76
2023/09/03 17:20:48;;;;;;;2.50;2.40;;;;;;;;;;5159498;23;20254;-73
2023/09/03 17:23:15;;;;;;;2.53;2.42;;;;;;;;;;4962586;29;20222;-74
2023/09/03 17:25:42;;;;;;;1.75;1.75;;;;;;;;;;4962722;29;20211;-74
2023/09/03 17:28:10;;;;;;;2.13;1.77;;;;;;;;;;4963671;28;20567;-73
2023/09/03 17:30:38;;;;;;;2.17;1.60;;;;;;;;;;4963838;29;20231;-74
2023/09/03 17:33:06;;;;;;;1.60;1.60;;;;;;;;;;4964367;28;20200;-71
2023/09/03 17:35:34;;;;;;;2.05;1.50;;;;;;;;;;4965356;29;20207;-73
2023/09/03 17:38:02;;;;;;;1.65;1.60;;;;;;;;;;4965331;29;20282;-72
2023/09/03 17:40:30;;;;;;;1.38;1.38;;;;;;;;;;4964064;29;20765;-73
2023/09/03 17:42:57;;;;;;;1.30;1.30;;;;;;;;;;4963782;28;20205;-75
2023/09/03 17:45:24;;;;;;;1.33;1.33;;;;;;;;;;4962942;29;20207;-76
2023/09/03 17:47:53;;;;;;;1.55;1.45;;;;;;;;;;4961754;28;20203;-75
2023/09/03 17:50:20;;;;;;;1.30;1.30;;;;;;;;;;4960882;28;20591;-74
2023/09/03 17:52:47;;;;;;;1.42;1.42;;;;;;;;;;4959765;29;20203;-74
2023/09/03 17:55:16;;;;;;;1.17;1.17;;;;;;;;;;4959540;29;20207;-75
2023/09/03 17:57:45;;;;;;;1.30;1.30;;;;;;;;;;4959724;29;20610;-75
2023/09/03 18:00:12;;;;;;;1.15;1.15;;;;;;;;;;4958361;29;20234;-74
2023/09/03 18:02:39;;;;;;;0.95;0.95;;;;;;;;;;4959140;28;20211;-75
2023/09/03 18:05:07;;;;;;;1.08;0.98;;;;;;;;;;4958013;29;20204;-74
2023/09/03 18:07:34;;;;;;;1.10;1.10;;;;;;;;;;4958797;29;20195;-74
2023/09/03 18:10:01;;;;;;;0.98;0.98;;;;;;;;;;4965185;29;20227;-74
2023/09/03 18:12:30;;;;;;;1.10;1.10;;;;;;;;;;4966569;29;20210;-74
2023/09/03 18:14:57;;;;;;;1.08;1.08;;;;;;;;;;4960839;28;20671;-71
2023/09/03 18:17:24;;;;;;;1.00;1.00;;;;;;;;;;4959756;29;20207;-72
2023/09/03 18:19:51;;;;;;;1.00;1.00;;;;;;;;;;4958762;29;20234;-72
2023/09/03 18:22:20;;;;;;;0.90;0.90;;;;;;;;;;4958392;29;20212;-72
2023/09/03 18:24:48;;;;;;;0.70;0.70;;;;;;;;;;4960542;29;20200;-72
2023/09/03 18:27:15;;;;;;;0.90;0.90;;;;;;;;;;4960245;29;20180;-72
2023/09/03 18:29:44;;;;;;;1.00;1.00;;;;;;;;;;4959876;29;20564;-73
2023/09/03 18:32:11;;;;;;;1.20;1.10;;;;;;;;;;4960030;29;20670;-73
2023/09/03 18:34:38;;;;;;;1.10;1.10;;;;;;;;;;4960735;29;20287;-73
2023/09/03 18:37:05;;;;;;;1.10;1.10;;;;;;;;;;4960024;29;20231;-73
2023/09/03 18:39:32;;;;;;;1.00;1.00;;;;;;;;;;4959704;29;20239;-72
2023/09/03 18:42:00;;;;;;;1.08;1.08;;;;;;;;;;4960742;29;20235;-73
2023/09/03 18:44:27;;;;;;;1.10;1.10;;;;;;;;;;4960247;29;20199;-72
2023/09/03 18:46:59;;;;;;;1.15;1.15;;;;;;;;;;4959288;29;20207;-71
2023/09/03 18:49:26;;;;;;;1.25;1.25;;;;;;;;;;4958921;29;20304;-71
2023/09/03 18:51:53;;;;;;;1.15;1.15;;;;;;;;;;4958728;29;20208;-70
2023/09/03 18:54:21;;;;;;;1.00;1.00;;;;;;;;;;4958672;29;20207;-69
2023/09/03 18:56:49;;;;;;;1.00;1.00;;;;;;;;;;4957613;29;20203;-71
2023/09/03 18:59:17;;;;;;;1.05;1.05;;;;;;;;;;4957461;29;20231;-71
2023/09/03 19:01:44;;;;;;;1.00;1.00;;;;;;;;;;4956709;28;20206;-70
2023/09/03 19:04:13;;;;;;;1.20;1.10;;;;;;;;;;4957897;29;20207;-72
2023/09/03 19:06:40;;;;;;;1.25;1.25;;;;;;;;;;4958079;29;20218;-72
2023/09/03 19:09:07;;;;;;;0.88;0.85;;;;;;;;;;4957446;29;20195;-71
2023/09/03 19:11:34;;;;;;;1.15;1.15;;;;;;;;;;4957393;29;20640;-70
2023/09/03 19:14:01;;;;;;;1.02;1.02;;;;;;;;;;4957403;29;20211;-70
2023/09/03 19:16:28;;;;;;;1.00;1.00;;;;;;;;;;4957922;29;20199;-70
2023/09/03 19:18:55;;;;;;;1.75;0.90;;;;;;;;;;4957455;29;20230;-70
2023/09/03 19:21:24;;;;;;;1.08;1.08;;;;;;;;;;4957401;29;20204;-70
2023/09/03 19:23:51;;;;;;;0.95;0.95;;;;;;;;;;4958029;29;20238;-69
2023/09/03 19:26:19;;;;;;;0.93;0.93;;;;;;;;;;4957084;29;20226;-70
2023/09/03 19:28:48;;;;;;;0.88;0.88;;;;;;;;;;4956975;29;20219;-70
2023/09/03 19:31:15;;;;;;;1.10;1.10;;;;;;;;;;4957409;29;20566;-70
2023/09/03 19:33:42;;;;;;;0.90;0.90;;;;;;;;;;4956877;29;20207;-70
2023/09/03 19:36:11;;;;;;;1.13;1.13;;;17.10;99.90;;;;;;4957500;29;20571;-69
2023/09/03 19:38:39;;;;;;;1.00;1.00;;;17.00;99.90;;;;;;4957283;29;20254;-70
2023/09/03 19:41:06;;;;;;;1.25;1.25;;;16.80;99.90;;;;;;4956724;29;20275;-69
2023/09/03 19:43:33;;;;;;;0.80;0.80;;;16.80;99.90;;;;;;4957077;29;20200;-69
2023/09/03 19:46:01;;;;;;;0.80;0.80;;;16.80;99.90;;;;;;4956945;29;20211;-70
2023/09/03 19:48:30;;;;;;;1.00;1.00;;;16.70;99.90;;;;;;4957043;29;20212;-70
2023/09/03 19:50:57;;;;;;;0.85;0.85;;;16.60;99.90;;;;;;4956873;28;20231;-71
2023/09/03 19:53:24;;;;;;;1.00;1.00;;;16.60;99.90;;;;;;4956738;29;20204;-70
2023/09/03 19:55:52;;;;;;;1.00;1.00;;;16.50;99.90;;;;;;4956479;29;20215;-69
2023/09/03 19:58:19;;;;;;;1.20;1.20;;;16.50;99.90;;;;;;4956540;29;20208;-69
2023/09/03 20:00:46;;;;;;;0.90;0.90;;;16.40;99.90;;;;;;4956511;29;20576;-69
2023/09/03 20:03:13;;;;;;;1.00;1.00;;;16.40;99.90;;;;;;4957169;29;20204;-71
2023/09/03 20:05:41;;;;;;;0.90;0.90;;;16.30;99.90;;;;;;4957195;29;20588;-71
2023/09/03 20:08:08;;;;;;;1.02;1.02;;;16.20;99.90;;;;;;4957287;29;20211;-70
2023/09/03 20:10:36;;;;;;;0.80;0.80;;;16.20;99.90;;;;;;4957043;29;20220;-70
2023/09/03 20:13:05;;;;;;;1.15;1.05;;;16.10;99.90;;;;;;4956831;28;20264;-70
2023/09/03 20:15:32;;;;;;;0.80;0.80;;;16.00;99.90;;;;;;4957131;29;20212;-70
2023/09/03 20:17:59;;;;;;;1.15;1.10;;;16.00;99.90;;;;;;4957246;29;20214;-70
2023/09/03 20:20:26;;;;;;;1.10;1.10;;;16.00;99.90;;;;;;4957773;29;20228;-70
2023/09/03 20:22:56;;;;;;;0.85;0.85;;;16.00;99.90;;;;;;4956972;29;20216;-70
2023/09/03 20:25:23;;;;;;;1.00;1.00;;;15.90;99.90;;;;;;4956723;28;20207;-71
2023/09/03 20:27:50;;;;;;;0.60;0.60;;;15.90;99.90;;;;;;4956949;29;20206;-70
2023/09/03 20:30:18;;;;;;;0.63;0.63;;;15.90;99.90;;;;;;4957206;29;20227;-70
2023/09/03 20:32:45;;;;;;;0.68;0.68;;;15.80;99.90;;;;;;4957256;29;20207;-71
2023/09/03 20:35:11;;;;;;;1.40;0.80;;;15.80;99.90;;;;;;4957099;29;20579;-70
2023/09/03 20:37:40;;;;;;;0.90;0.90;;;15.80;99.90;;;;;;4956849;29;20218;-71
2023/09/03 20:40:09;;;;;;;0.70;0.70;;;15.70;99.90;;;;;;4956597;29;20232;-71
2023/09/03 20:42:36;;;;;;;1.00;1.00;;;15.70;99.90;;;;;;4956760;28;20556;-71
2023/09/03 20:45:03;;;;;;;1.00;0.85;;;15.70;99.90;;;;;;4956634;29;20227;-71
2023/09/03 20:47:31;;;;;;;0.77;0.77;;;15.60;99.90;;;;;;4956799;29;20204;-70
2023/09/03 20:49:58;;;;;;;1.00;0.90;;;15.60;99.90;;;;;;4955021;29;20726;-70
2023/09/03 20:52:25;;;;;;;0.70;0.70;;;15.50;99.90;;;;;;4955232;29;20208;-70
2023/09/03 20:54:52;;;;;;;0.80;0.80;;;15.50;99.90;;;;;;4955333;28;20211;-70
2023/09/03 20:57:18;;;;;;;0.75;0.75;;;15.50;99.90;;;;;;4955068;29;20568;-70
2023/09/03 20:59:45;;;;;;;1.63;1.20;;;15.50;99.90;;;;;;4955248;29;20227;-70
2023/09/03 21:02:12;;;;;;;1.58;0.88;;;15.50;99.90;;;;;;4954953;29;20219;-70
2023/09/03 21:04:40;;;;;;;0.82;0.82;;;15.40;99.90;;;;;;4955295;29;20204;-70
2023/09/03 21:07:07;;;;;;;1.15;1.13;;;15.40;99.90;;;;;;4954896;29;20200;-70
2023/09/03 21:09:34;;;;;;;0.98;0.98;;;15.30;99.90;;;;;;4955099;29;20220;-70
2023/09/03 21:12:00;;;;;;;0.82;0.82;;;15.30;99.90;;;;;;4955127;29;20204;-70
2023/09/03 21:14:27;;;;;;;1.00;1.00;;;15.30;99.90;;;;;;4955144;29;20211;-70
2023/09/03 21:16:54;;;;;;;0.90;0.90;;;15.30;99.90;;;;;;4955573;29;20208;-70
2023/09/03 21:19:20;;;;;;;1.10;1.10;;;15.30;99.90;;;;;;4954534;29;20706;-70
2023/09/03 21:21:49;;;;;;;0.90;0.90;;;15.20;99.90;;;;;;4954903;29;20212;-70
2023/09/03 21:24:16;;;;;;;0.90;0.90;;;15.20;99.90;;;;;;4955441;28;20189;-71
2023/09/03 21:26:43;;;;;;;0.88;0.88;;;15.20;99.90;;;;;;4958326;29;20287;-70
2023/09/03 21:29:10;;;;;;;0.88;0.88;;;15.10;99.90;;;;;;4958820;29;20223;-69
